createdAt,value
2017-06-18T00:00:27.812Z,78.89
2017-06-18T00:01:41.991Z,78.80
2017-06-18T00:02:43.873Z,78.89
2017-06-18T00:03:45.756Z,78.70
2017-06-18T00:04:47.617Z,79.08
2017-06-18T00:05:49.420Z,78.80
2017-06-18T00:06:51.223Z,78.99
2017-06-18T00:07:53.102Z,78.80
2017-06-18T00:08:54.962Z,78.70
2017-06-18T00:09:56.821Z,78.61
2017-06-18T00:11:10.947Z,78.42
2017-06-18T00:12:12.808Z,78.42
2017-06-18T00:13:14.678Z,78.32
2017-06-18T00:14:16.562Z,78.51
2017-06-18T00:15:18.354Z,78.51
2017-06-18T00:16:20.161Z,78.13
2017-06-18T00:17:22.043Z,77.94
2017-06-18T00:18:23.919Z,78.03
2017-06-18T00:19:25.790Z,78.03
2017-06-18T00:20:39.921Z,78.13
2017-06-18T00:21:41.784Z,78.03
2017-06-18T00:22:43.669Z,78.03
2017-06-18T00:23:45.550Z,77.75
2017-06-18T00:24:47.350Z,78.13
2017-06-18T00:25:49.154Z,77.94
2017-06-18T00:26:51.015Z,78.13
2017-06-18T00:27:52.883Z,78.13
2017-06-18T00:28:54.764Z,78.03
2017-06-18T00:30:08.918Z,77.55
2017-06-18T00:31:10.795Z,78.03
2017-06-18T00:32:12.660Z,78.13
2017-06-18T00:33:14.544Z,77.94
2017-06-18T00:34:16.372Z,77.84
2017-06-18T00:35:18.169Z,77.75
2017-06-18T00:36:20.037Z,77.55
2017-06-18T00:37:21.890Z,77.65
2017-06-18T00:38:23.750Z,77.55
2017-06-18T00:39:37.878Z,77.75
2017-06-18T00:40:39.741Z,77.55
2017-06-18T00:41:41.626Z,76.69
2017-06-18T00:42:43.512Z,76.79
2017-06-18T00:43:45.331Z,76.50
2017-06-18T00:44:47.137Z,77.08
2017-06-18T00:45:49.021Z,76.50
2017-06-18T00:46:50.898Z,76.31
2017-06-18T00:47:52.757Z,76.21
2017-06-18T00:49:06.891Z,76.60
2017-06-18T00:50:08.777Z,76.31
2017-06-18T00:51:10.656Z,76.12
2017-06-18T00:52:12.522Z,75.54
2017-06-18T00:53:14.343Z,75.93
2017-06-18T00:54:16.139Z,76.02
2017-06-18T00:55:18.004Z,75.83
2017-06-18T00:56:19.859Z,76.02
2017-06-18T00:57:21.717Z,76.02
2017-06-18T00:58:35.857Z,76.18
2017-06-18T00:59:37.734Z,75.98
2017-06-18T01:00:39.593Z,75.98
2017-06-18T01:01:41.456Z,75.98
2017-06-18T01:02:43.255Z,75.98
2017-06-18T01:03:45.074Z,75.79
2017-06-18T01:04:46.933Z,76.37
2017-06-18T01:05:48.801Z,75.89
2017-06-18T01:06:50.679Z,76.37
2017-06-18T01:08:04.809Z,76.18
2017-06-18T01:09:06.675Z,76.46
2017-06-18T01:10:08.558Z,76.46
2017-06-18T01:11:10.443Z,76.37
2017-06-18T01:12:12.262Z,76.56
2017-06-18T01:13:14.060Z,76.94
2017-06-18T01:14:15.922Z,76.94
2017-06-18T01:15:17.800Z,76.84
2017-06-18T01:16:19.657Z,76.84
2017-06-18T01:17:33.787Z,76.75
2017-06-18T01:18:35.651Z,76.46
2017-06-18T01:19:37.510Z,77.04
2017-06-18T01:20:39.374Z,77.04
2017-06-18T01:21:41.176Z,76.65
2017-06-18T01:22:42.978Z,76.56
2017-06-18T01:23:44.860Z,76.65
2017-06-18T01:24:46.741Z,76.46
2017-06-18T01:25:48.613Z,76.84
2017-06-18T01:27:02.745Z,76.84
2017-06-18T01:28:04.600Z,76.65
2017-06-18T01:29:06.471Z,76.65
2017-06-18T01:30:08.351Z,76.65
2017-06-18T01:31:10.153Z,76.94
2017-06-18T01:32:11.977Z,76.94
2017-06-18T01:33:13.858Z,76.84
2017-06-18T01:34:15.723Z,76.56
2017-06-18T01:35:17.599Z,76.65
2017-06-18T01:36:31.738Z,76.08
2017-06-18T01:37:33.597Z,76.56
2017-06-18T01:38:35.463Z,75.70
2017-06-18T01:39:37.341Z,75.79
2017-06-18T01:40:39.144Z,75.60
2017-06-18T01:41:40.940Z,75.51
2017-06-18T01:42:42.805Z,75.79
2017-06-18T01:43:44.684Z,75.89
2017-06-18T01:44:46.549Z,75.98
2017-06-18T01:46:00.684Z,76.18
2017-06-18T01:47:02.565Z,76.27
2017-06-18T01:48:04.450Z,76.27
2017-06-18T01:49:06.314Z,76.18
2017-06-18T01:50:08.134Z,76.18
2017-06-18T01:51:09.925Z,75.98
2017-06-18T01:52:11.788Z,75.98
2017-06-18T01:53:13.650Z,75.70
2017-06-18T01:54:15.537Z,76.27
2017-06-18T01:55:29.689Z,75.98
2017-06-18T01:56:31.556Z,75.98
2017-06-18T01:57:33.434Z,75.98
2017-06-18T01:58:35.290Z,76.18
2017-06-18T01:59:37.087Z,75.98
2017-06-18T02:00:38.883Z,75.98
2017-06-18T02:01:40.745Z,76.18
2017-06-18T02:02:42.609Z,75.60
2017-06-18T02:03:44.475Z,75.79
2017-06-18T02:04:58.608Z,75.89
2017-06-18T02:06:00.489Z,75.98
2017-06-18T02:07:02.353Z,75.89
2017-06-18T02:08:04.239Z,75.79
2017-06-18T02:09:06.063Z,75.98
2017-06-18T02:10:07.884Z,75.89
2017-06-18T02:11:09.765Z,76.27
2017-06-18T02:12:11.626Z,76.18
2017-06-18T02:13:13.489Z,75.41
2017-06-18T02:14:27.695Z,75.45
2017-06-18T02:15:29.574Z,75.45
2017-06-18T02:16:31.436Z,76.21
2017-06-18T02:17:33.296Z,76.21
2017-06-18T02:18:35.101Z,76.21
2017-06-18T02:19:36.901Z,76.21
2017-06-18T02:20:38.788Z,76.21
2017-06-18T02:21:40.654Z,75.54
2017-06-18T02:22:42.522Z,75.64
2017-06-18T02:23:56.674Z,75.54
2017-06-18T02:24:58.542Z,75.54
2017-06-18T02:26:00.404Z,75.45
2017-06-18T02:27:02.270Z,75.35
2017-06-18T02:28:04.077Z,75.16
2017-06-18T02:29:05.889Z,75.26
2017-06-18T02:30:07.753Z,75.45
2017-06-18T02:31:09.614Z,74.97
2017-06-18T02:32:11.477Z,74.87
2017-06-18T02:33:25.632Z,75.07
2017-06-18T02:34:27.515Z,74.87
2017-06-18T02:35:29.400Z,75.16
2017-06-18T02:36:31.263Z,75.16
2017-06-18T02:37:33.056Z,75.16
2017-06-18T02:38:34.852Z,75.07
2017-06-18T02:39:36.716Z,75.35
2017-06-18T02:40:38.584Z,75.73
2017-06-18T02:41:40.426Z,75.26
2017-06-18T02:42:54.599Z,75.35
2017-06-18T02:43:56.486Z,75.64
2017-06-18T02:44:58.368Z,75.45
2017-06-18T02:46:00.235Z,75.45
2017-06-18T02:47:02.057Z,75.54
2017-06-18T02:48:03.860Z,75.35
2017-06-18T02:49:05.679Z,75.35
2017-06-18T02:50:07.487Z,75.64
2017-06-18T02:51:09.289Z,76.21
2017-06-18T02:52:23.425Z,76.12
2017-06-18T02:53:25.294Z,76.12
2017-06-18T02:54:27.175Z,75.64
2017-06-18T02:55:29.037Z,75.54
2017-06-18T02:56:30.844Z,75.64
2017-06-18T02:57:32.638Z,75.35
2017-06-18T02:58:34.506Z,75.16
2017-06-18T02:59:36.370Z,75.35
2017-06-18T03:00:38.232Z,75.35
2017-06-18T03:01:52.373Z,75.54
2017-06-18T03:02:54.262Z,75.64
2017-06-18T03:03:56.120Z,75.16
2017-06-18T03:04:57.984Z,75.26
2017-06-18T03:05:59.783Z,75.26
2017-06-18T03:07:01.586Z,75.35
2017-06-18T03:08:03.456Z,75.16
2017-06-18T03:09:05.344Z,74.97
2017-06-18T03:10:07.202Z,75.07
2017-06-18T03:11:21.340Z,74.87
2017-06-18T03:12:23.229Z,75.07
2017-06-18T03:13:25.113Z,75.26
2017-06-18T03:14:27.001Z,75.64
2017-06-18T03:15:28.801Z,75.35
2017-06-18T03:16:30.603Z,75.64
2017-06-18T03:17:32.486Z,75.64
2017-06-18T03:18:34.353Z,75.64
2017-06-18T03:19:36.218Z,75.54
2017-06-18T03:20:50.375Z,76.21
2017-06-18T03:21:52.255Z,75.45
2017-06-18T03:22:54.125Z,75.54
2017-06-18T03:23:55.988Z,75.54
2017-06-18T03:24:57.799Z,75.77
2017-06-18T03:25:59.625Z,75.73
2017-06-18T03:27:01.518Z,75.64
2017-06-18T03:28:03.408Z,75.68
2017-06-18T03:29:05.293Z,75.58
2017-06-18T03:30:19.425Z,75.54
2017-06-18T03:31:21.292Z,75.29
2017-06-18T03:32:23.179Z,75.39
2017-06-18T03:33:25.065Z,75.20
2017-06-18T03:34:26.892Z,75.39
2017-06-18T03:35:28.688Z,75.10
2017-06-18T03:36:30.558Z,75.01
2017-06-18T03:37:32.449Z,75.20
2017-06-18T03:38:34.336Z,74.91
2017-06-18T03:39:48.479Z,75.10
2017-06-18T03:40:50.366Z,75.20
2017-06-18T03:41:52.254Z,75.39
2017-06-18T03:42:54.114Z,75.01
2017-06-18T03:43:55.923Z,75.01
2017-06-18T03:44:57.743Z,74.72
2017-06-18T03:45:59.636Z,74.72
2017-06-18T03:47:01.527Z,74.72
2017-06-18T03:48:03.410Z,74.18
2017-06-18T03:49:17.552Z,73.99
2017-06-18T03:50:19.435Z,73.41
2017-06-18T03:51:21.323Z,73.90
2017-06-18T03:52:23.214Z,73.80
2017-06-18T03:53:25.033Z,73.41
2017-06-18T03:54:26.837Z,73.32
2017-06-18T03:55:28.706Z,72.74
2017-06-18T03:56:30.596Z,73.13
2017-06-18T03:57:32.473Z,73.03
2017-06-18T03:58:46.634Z,72.84
2017-06-18T03:59:48.500Z,72.36
2017-06-18T04:00:50.382Z,72.74
2017-06-18T04:01:52.252Z,72.45
2017-06-18T04:02:54.064Z,72.30
2017-06-18T04:03:55.888Z,72.30
2017-06-18T04:04:57.785Z,72.30
2017-06-18T04:05:59.697Z,72.20
2017-06-18T04:07:01.545Z,72.01
2017-06-18T04:08:15.684Z,72.11
2017-06-18T04:09:17.553Z,72.30
2017-06-18T04:10:19.424Z,72.11
2017-06-18T04:11:21.310Z,72.30
2017-06-18T04:12:23.116Z,72.20
2017-06-18T04:13:24.924Z,71.63
2017-06-18T04:14:26.813Z,72.20
2017-06-18T04:15:28.681Z,72.24
2017-06-18T04:16:30.553Z,71.82
2017-06-18T04:17:44.691Z,71.63
2017-06-18T04:18:46.564Z,71.53
2017-06-18T04:19:48.449Z,71.82
2017-06-18T04:20:50.326Z,71.72
2017-06-18T04:21:52.155Z,71.63
2017-06-18T04:22:53.985Z,72.30
2017-06-18T04:23:55.876Z,72.17
2017-06-18T04:24:57.740Z,72.07
2017-06-18T04:25:59.614Z,72.27
2017-06-18T04:27:13.784Z,72.27
2017-06-18T04:28:15.668Z,72.27
2017-06-18T04:29:17.536Z,72.74
2017-06-18T04:30:19.406Z,72.94
2017-06-18T04:31:21.217Z,72.94
2017-06-18T04:32:23.045Z,72.94
2017-06-18T04:33:24.933Z,73.22
2017-06-18T04:34:26.797Z,72.64
2017-06-18T04:35:28.666Z,72.78
2017-06-18T04:36:42.804Z,72.11
2017-06-18T04:37:44.675Z,72.49
2017-06-18T04:38:46.564Z,71.63
2017-06-18T04:39:48.454Z,71.72
2017-06-18T04:40:50.253Z,71.57
2017-06-18T04:41:52.070Z,70.61
2017-06-18T04:42:53.954Z,69.40
2017-06-18T04:43:55.828Z,67.51
2017-06-18T04:44:57.718Z,65.62
2017-06-18T04:46:11.912Z,62.51
2017-06-18T04:47:13.803Z,61.77
2017-06-18T04:48:15.692Z,59.49
2017-06-18T04:49:17.556Z,58.15
2017-06-18T04:50:19.368Z,57.60
2017-06-18T04:51:21.200Z,57.40
2017-06-18T04:52:23.096Z,56.57
2017-06-18T04:53:24.994Z,55.60
2017-06-18T04:54:26.886Z,55.15
2017-06-18T04:55:41.026Z,54.79
2017-06-18T04:56:42.902Z,53.63
2017-06-18T04:57:44.790Z,53.08
2017-06-18T04:58:46.684Z,51.53
2017-06-18T04:59:48.516Z,51.75
2017-06-18T05:00:50.347Z,50.79
2017-06-18T05:01:52.226Z,50.40
2017-06-18T05:02:54.101Z,50.23
2017-06-18T05:03:55.973Z,49.55
2017-06-18T05:05:10.122Z,49.17
2017-06-18T05:06:12.013Z,49.27
2017-06-18T05:07:13.891Z,49.27
2017-06-18T05:08:15.762Z,48.49
2017-06-18T05:09:17.575Z,48.49
2017-06-18T05:10:19.380Z,48.90
2017-06-18T05:11:21.259Z,48.23
2017-06-18T05:12:23.156Z,47.94
2017-06-18T05:13:25.043Z,47.86
2017-06-18T05:14:39.192Z,47.48
2017-06-18T05:15:41.085Z,47.28
2017-06-18T05:16:42.974Z,47.02
2017-06-18T05:17:44.846Z,46.05
2017-06-18T05:18:46.670Z,45.95
2017-06-18T05:19:48.485Z,46.05
2017-06-18T05:20:50.375Z,46.42
2017-06-18T05:21:52.257Z,46.90
2017-06-18T05:22:54.139Z,47.45
2017-06-18T05:24:08.287Z,48.79
2017-06-18T05:25:10.162Z,49.44
2017-06-18T05:26:12.056Z,50.38
2017-06-18T05:27:13.933Z,51.70
2017-06-18T05:28:15.765Z,52.16
2017-06-18T05:29:17.575Z,53.31
2017-06-18T05:30:19.470Z,53.13
2017-06-18T05:31:21.370Z,53.53
2017-06-18T05:32:23.260Z,52.83
2017-06-18T05:33:37.403Z,53.22
2017-06-18T05:34:39.298Z,53.31
2017-06-18T05:35:41.181Z,53.61
2017-06-18T05:36:43.055Z,53.89
2017-06-18T05:37:44.887Z,54.18
2017-06-18T05:38:46.701Z,53.80
2017-06-18T05:39:48.575Z,53.99
2017-06-18T05:40:50.461Z,54.25
2017-06-18T05:41:52.333Z,54.96
2017-06-18T05:43:06.477Z,55.02
2017-06-18T05:44:08.351Z,55.31
2017-06-18T05:45:10.223Z,55.41
2017-06-18T05:46:12.125Z,56.15
2017-06-18T05:47:13.955Z,56.99
2017-06-18T05:48:15.783Z,57.57
2017-06-18T05:49:17.658Z,58.15
2017-06-18T05:50:19.554Z,57.95
2017-06-18T05:51:21.444Z,57.47
2017-06-18T05:52:35.658Z,58.05
2017-06-18T05:53:37.533Z,57.86
2017-06-18T05:54:39.429Z,58.05
2017-06-18T05:55:41.325Z,58.05
2017-06-18T05:56:43.154Z,57.86
2017-06-18T05:57:44.984Z,58.34
2017-06-18T05:58:46.861Z,58.82
2017-06-18T05:59:48.757Z,59.20
2017-06-18T06:00:50.646Z,59.11
2017-06-18T06:02:04.790Z,58.98
2017-06-18T06:03:06.661Z,59.27
2017-06-18T06:04:08.533Z,59.37
2017-06-18T06:05:10.424Z,59.97
2017-06-18T06:06:12.258Z,60.07
2017-06-18T06:07:14.067Z,59.20
2017-06-18T06:08:15.961Z,59.11
2017-06-18T06:09:17.835Z,59.20
2017-06-18T06:10:19.726Z,58.44
2017-06-18T06:11:33.867Z,59.01
2017-06-18T06:12:35.740Z,59.30
2017-06-18T06:13:37.610Z,59.88
2017-06-18T06:14:39.498Z,60.07
2017-06-18T06:15:41.312Z,60.07
2017-06-18T06:16:43.123Z,60.14
2017-06-18T06:17:45.017Z,61.00
2017-06-18T06:18:46.912Z,61.19
2017-06-18T06:19:48.806Z,61.87
2017-06-18T06:21:02.996Z,61.32
2017-06-18T06:22:04.873Z,61.13
2017-06-18T06:23:06.768Z,60.75
2017-06-18T06:24:08.665Z,60.94
2017-06-18T06:25:10.490Z,60.07
2017-06-18T06:26:12.296Z,60.27
2017-06-18T06:27:14.170Z,60.07
2017-06-18T06:28:16.060Z,59.78
2017-06-18T06:29:17.931Z,60.27
2017-06-18T06:30:32.074Z,60.07
2017-06-18T06:31:33.961Z,60.07
2017-06-18T06:32:35.818Z,60.94
2017-06-18T06:33:37.709Z,61.42
2017-06-18T06:34:39.513Z,61.22
2017-06-18T06:35:41.323Z,61.42
2017-06-18T06:36:43.217Z,61.42
2017-06-18T06:37:45.112Z,61.39
2017-06-18T06:38:46.999Z,61.19
2017-06-18T06:40:01.260Z,61.77
2017-06-18T06:41:03.150Z,61.58
2017-06-18T06:42:05.042Z,61.68
2017-06-18T06:43:06.913Z,62.06
2017-06-18T06:44:08.722Z,62.45
2017-06-18T06:45:10.878Z,62.06
2017-06-18T06:46:12.894Z,61.97
2017-06-18T06:47:14.853Z,60.72
2017-06-18T06:48:16.747Z,60.24
2017-06-18T06:49:30.976Z,60.04
2017-06-18T06:50:32.863Z,60.04
2017-06-18T06:51:34.731Z,60.49
2017-06-18T06:52:36.599Z,60.39
2017-06-18T06:53:38.426Z,61.26
2017-06-18T06:54:40.229Z,61.26
2017-06-18T06:55:42.103Z,61.26
2017-06-18T06:56:43.990Z,61.36
2017-06-18T06:57:45.860Z,61.81
2017-06-18T06:59:00.004Z,61.43
2017-06-18T07:00:01.895Z,61.52
2017-06-18T07:01:03.814Z,62.00
2017-06-18T07:02:05.679Z,62.19
2017-06-18T07:03:07.494Z,62.32
2017-06-18T07:04:09.411Z,61.94
2017-06-18T07:05:11.287Z,61.94
2017-06-18T07:06:13.176Z,61.84
2017-06-18T07:07:15.047Z,61.55
2017-06-18T07:08:29.188Z,60.69
2017-06-18T07:09:31.129Z,59.99
2017-06-18T07:10:33.103Z,60.01
2017-06-18T07:11:34.979Z,59.99
2017-06-18T07:12:36.784Z,60.66
2017-06-18T07:13:38.586Z,61.33
2017-06-18T07:14:40.457Z,61.23
2017-06-18T07:15:42.356Z,60.27
2017-06-18T07:16:44.260Z,59.99
2017-06-18T07:17:58.402Z,60.21
2017-06-18T07:19:00.406Z,60.01
2017-06-18T07:20:02.347Z,60.11
2017-06-18T07:21:04.265Z,60.30
2017-06-18T07:22:06.154Z,60.49
2017-06-18T07:23:08.083Z,60.39
2017-06-18T07:24:10.023Z,60.01
2017-06-18T07:25:11.892Z,59.99
2017-06-18T07:26:13.824Z,60.94
2017-06-18T07:27:28.034Z,61.04
2017-06-18T07:28:29.944Z,60.75
2017-06-18T07:29:31.879Z,61.81
2017-06-18T07:30:34.409Z,61.43
2017-06-18T07:31:36.197Z,61.91
2017-06-18T07:32:38.083Z,61.91
2017-06-18T07:33:40.029Z,61.23
2017-06-18T07:34:41.943Z,61.71
2017-06-18T07:35:43.856Z,62.10
2017-06-18T07:36:58.073Z,61.91
2017-06-18T07:37:59.962Z,61.43
2017-06-18T07:39:01.926Z,61.07
2017-06-18T07:40:03.821Z,61.46
2017-06-18T07:41:05.653Z,61.07
2017-06-18T07:42:07.480Z,60.69
2017-06-18T07:43:09.366Z,60.97
2017-06-18T07:44:11.241Z,61.36
2017-06-18T07:45:13.136Z,61.94
2017-06-18T07:46:27.299Z,62.23
2017-06-18T07:47:29.187Z,61.46
2017-06-18T07:48:31.146Z,60.11
2017-06-18T07:49:33.018Z,60.11
2017-06-18T07:50:34.825Z,59.92
2017-06-18T07:51:36.636Z,60.11
2017-06-18T07:52:38.575Z,59.24
2017-06-18T07:53:40.536Z,59.34
2017-06-18T07:54:42.535Z,59.15
2017-06-18T07:55:56.733Z,59.92
2017-06-18T07:56:58.650Z,59.15
2017-06-18T07:58:00.617Z,58.47
2017-06-18T07:59:02.507Z,58.67
2017-06-18T08:00:04.339Z,58.95
2017-06-18T08:01:06.160Z,59.15
2017-06-18T08:02:08.040Z,59.24
2017-06-18T08:03:10.024Z,58.57
2017-06-18T08:04:11.910Z,58.86
2017-06-18T08:05:26.053Z,58.98
2017-06-18T08:06:27.923Z,58.12
2017-06-18T08:07:29.812Z,58.31
2017-06-18T08:08:31.815Z,57.54
2017-06-18T08:09:33.663Z,57.06
2017-06-18T08:10:35.612Z,57.35
2017-06-18T08:11:37.554Z,56.51
2017-06-18T08:12:39.490Z,56.48
2017-06-18T08:13:41.434Z,56.10
2017-06-18T08:14:55.635Z,56.29
2017-06-18T08:15:57.504Z,57.06
2017-06-18T08:16:59.445Z,57.15
2017-06-18T08:18:01.329Z,56.29
2017-06-18T08:19:03.190Z,56.22
2017-06-18T08:20:05.016Z,56.12
2017-06-18T08:21:06.908Z,56.41
2017-06-18T08:22:08.801Z,55.93
2017-06-18T08:23:10.669Z,55.55
2017-06-18T08:24:24.906Z,55.07
2017-06-18T08:25:26.840Z,54.13
2017-06-18T08:26:28.743Z,53.94
2017-06-18T08:27:30.619Z,54.80
2017-06-18T08:28:32.428Z,54.80
2017-06-18T08:29:34.254Z,55.00
2017-06-18T08:30:36.121Z,55.00
2017-06-18T08:31:37.988Z,55.19
2017-06-18T08:32:39.859Z,55.19
2017-06-18T08:33:54.026Z,54.80
2017-06-18T08:34:55.918Z,54.80
2017-06-18T08:35:57.816Z,54.52
2017-06-18T08:36:59.713Z,54.13
2017-06-18T08:38:01.541Z,54.13
2017-06-18T08:39:03.335Z,54.13
2017-06-18T08:40:05.231Z,54.93
2017-06-18T08:41:07.102Z,54.06
2017-06-18T08:42:08.968Z,53.00
2017-06-18T08:43:23.110Z,50.40
2017-06-18T08:44:24.980Z,50.69
2017-06-18T08:45:26.848Z,50.49
2017-06-18T08:46:28.715Z,50.11
2017-06-18T08:47:30.526Z,49.63
2017-06-18T08:48:32.330Z,49.75
2017-06-18T08:49:34.210Z,49.34
2017-06-18T08:50:36.082Z,48.66
2017-06-18T08:51:37.975Z,49.24
2017-06-18T08:52:52.137Z,49.82
2017-06-18T08:53:54.012Z,49.15
2017-06-18T08:54:55.900Z,49.24
2017-06-18T08:55:57.776Z,49.43
2017-06-18T08:56:59.608Z,49.82
2017-06-18T08:58:01.438Z,49.91
2017-06-18T08:59:03.310Z,50.69
2017-06-18T09:00:05.210Z,50.13
2017-06-18T09:01:07.103Z,49.17
2017-06-18T09:02:21.271Z,50.01
2017-06-18T09:03:23.139Z,50.11
2017-06-18T09:04:25.029Z,50.40
2017-06-18T09:05:26.906Z,50.49
2017-06-18T09:06:28.737Z,50.69
2017-06-18T09:07:30.567Z,50.98
2017-06-18T09:08:32.455Z,51.65
2017-06-18T09:09:34.330Z,50.49
2017-06-18T09:10:36.199Z,49.34
2017-06-18T09:11:50.347Z,49.82
2017-06-18T09:12:52.237Z,50.13
2017-06-18T09:13:54.101Z,50.42
2017-06-18T09:14:55.971Z,51.10
2017-06-18T09:15:57.813Z,49.55
2017-06-18T09:16:59.644Z,48.88
2017-06-18T09:18:01.511Z,48.97
2017-06-18T09:19:03.382Z,49.07
2017-06-18T09:20:05.249Z,49.39
2017-06-18T09:21:19.389Z,48.71
2017-06-18T09:22:21.259Z,48.42
2017-06-18T09:23:23.131Z,49.10
2017-06-18T09:24:25.003Z,49.68
2017-06-18T09:25:26.831Z,50.35
2017-06-18T09:26:28.660Z,50.26
2017-06-18T09:27:30.554Z,50.54
2017-06-18T09:28:32.430Z,50.26
2017-06-18T09:29:34.318Z,50.93
2017-06-18T09:30:48.469Z,50.74
2017-06-18T09:31:50.362Z,50.86
2017-06-18T09:32:52.241Z,50.57
2017-06-18T09:33:54.138Z,49.73
2017-06-18T09:34:55.950Z,48.86
2017-06-18T09:35:57.779Z,48.86
2017-06-18T09:36:59.647Z,49.12
2017-06-18T09:38:01.521Z,49.10
2017-06-18T09:39:03.420Z,49.48
2017-06-18T09:40:17.586Z,49.60
2017-06-18T09:41:19.474Z,50.06
2017-06-18T09:42:21.350Z,50.26
2017-06-18T09:43:23.212Z,50.18
2017-06-18T09:44:25.026Z,49.80
2017-06-18T09:45:26.857Z,50.18
2017-06-18T09:46:28.752Z,49.22
2017-06-18T09:47:30.624Z,49.41
2017-06-18T09:48:32.524Z,49.39
2017-06-18T09:49:46.689Z,50.09
2017-06-18T09:50:48.576Z,49.41
2017-06-18T09:51:50.448Z,48.44
2017-06-18T09:52:52.343Z,47.77
2017-06-18T09:53:54.171Z,47.70
2017-06-18T09:54:56.001Z,47.31
2017-06-18T09:55:57.880Z,47.43
2017-06-18T09:56:59.771Z,46.66
2017-06-18T09:58:01.671Z,45.79
2017-06-18T09:59:15.848Z,45.98
2017-06-18T10:00:17.713Z,46.08
2017-06-18T10:01:19.603Z,46.78
2017-06-18T10:02:21.473Z,46.78
2017-06-18T10:03:23.286Z,46.85
2017-06-18T10:04:25.110Z,47.05
2017-06-18T10:05:26.990Z,47.43
2017-06-18T10:06:28.880Z,47.72
2017-06-18T10:07:30.751Z,48.01
2017-06-18T10:08:44.900Z,48.08
2017-06-18T10:09:46.795Z,47.99
2017-06-18T10:10:48.687Z,47.89
2017-06-18T10:11:50.586Z,48.06
2017-06-18T10:12:52.418Z,47.87
2017-06-18T10:13:54.249Z,48.08
2017-06-18T10:14:56.312Z,47.99
2017-06-18T10:15:58.216Z,47.91
2017-06-18T10:17:00.079Z,47.81
2017-06-18T10:18:14.224Z,47.33
2017-06-18T10:19:16.125Z,47.43
2017-06-18T10:20:17.982Z,47.63
2017-06-18T10:21:19.909Z,47.14
2017-06-18T10:22:21.719Z,46.85
2017-06-18T10:23:23.551Z,47.63
2017-06-18T10:24:25.577Z,47.72
2017-06-18T10:25:27.485Z,48.49
2017-06-18T10:26:29.377Z,48.30
2017-06-18T10:27:43.526Z,47.81
2017-06-18T10:28:45.417Z,47.33
2017-06-18T10:29:47.281Z,46.88
2017-06-18T10:30:49.202Z,45.91
2017-06-18T10:31:51.038Z,45.33
2017-06-18T10:32:52.857Z,44.07
2017-06-18T10:33:54.739Z,43.78
2017-06-18T10:34:56.654Z,44.19
2017-06-18T10:35:58.648Z,44.67
2017-06-18T10:37:12.902Z,44.29
2017-06-18T10:38:14.760Z,44.48
2017-06-18T10:39:16.655Z,44.87
2017-06-18T10:40:18.530Z,45.54
2017-06-18T10:41:20.359Z,45.64
2017-06-18T10:42:22.291Z,45.11
2017-06-18T10:43:24.198Z,45.79
2017-06-18T10:44:26.095Z,47.12
2017-06-18T10:45:27.968Z,47.12
2017-06-18T10:46:42.153Z,47.19
2017-06-18T10:47:44.122Z,47.77
2017-06-18T10:48:46.052Z,47.87
2017-06-18T10:49:47.944Z,47.02
2017-06-18T10:50:49.769Z,47.02
2017-06-18T10:51:51.584Z,46.95
2017-06-18T10:55:21.736Z,45.52
2017-06-18T10:56:23.612Z,45.35
2017-06-18T10:57:25.446Z,45.16
2017-06-18T10:58:27.268Z,44.96
2017-06-18T10:59:29.149Z,45.25
2017-06-18T11:00:31.052Z,46.00
2017-06-18T11:01:32.967Z,46.78
2017-06-18T11:02:34.756Z,47.63
2017-06-18T11:03:48.910Z,48.01
2017-06-18T11:04:50.811Z,48.76
2017-06-18T11:05:52.754Z,48.28
2017-06-18T11:06:54.680Z,47.89
2017-06-18T11:07:56.467Z,47.89
2017-06-18T11:08:58.302Z,48.08
2017-06-18T11:10:00.192Z,48.59
2017-06-18T11:11:02.086Z,48.11
2017-06-18T11:12:03.958Z,46.88
2017-06-18T11:13:18.128Z,46.12
2017-06-18T11:14:20.071Z,45.83
2017-06-18T11:15:21.950Z,45.74
2017-06-18T11:16:23.845Z,46.32
2017-06-18T11:17:25.699Z,46.68
2017-06-18T11:18:27.563Z,47.45
2017-06-18T11:19:29.458Z,48.21
2017-06-18T11:20:31.391Z,47.72
2017-06-18T11:21:33.322Z,48.11
2017-06-18T11:22:47.473Z,48.79
2017-06-18T11:23:49.379Z,48.69
2017-06-18T11:24:51.280Z,48.86
2017-06-18T11:25:53.227Z,48.79
2017-06-18T11:26:55.188Z,48.21
2017-06-18T11:27:57.040Z,47.72
2017-06-18T11:28:58.970Z,47.74
2017-06-18T11:30:00.964Z,47.36
2017-06-18T11:31:02.856Z,46.90
2017-06-18T11:32:17.026Z,45.64
2017-06-18T11:33:18.908Z,45.76
2017-06-18T11:34:20.780Z,45.18
2017-06-18T11:35:22.664Z,44.12
2017-06-18T11:36:24.577Z,44.12
2017-06-18T11:37:26.385Z,44.21
2017-06-18T11:38:28.332Z,44.70
2017-06-18T11:39:30.176Z,45.57
2017-06-18T11:40:32.050Z,46.03
2017-06-18T11:41:46.212Z,46.22
2017-06-18T11:42:48.076Z,47.19
2017-06-18T11:43:49.956Z,47.19
2017-06-18T11:44:51.837Z,46.80
2017-06-18T11:45:53.656Z,47.00
2017-06-18T11:46:55.499Z,47.55
2017-06-18T11:47:57.392Z,47.38
2017-06-18T11:48:59.281Z,47.00
2017-06-18T11:50:01.154Z,47.00
2017-06-18T11:51:15.292Z,46.92
2017-06-18T11:52:17.160Z,46.83
2017-06-18T11:53:19.037Z,45.76
2017-06-18T11:54:20.932Z,45.01
2017-06-18T11:55:22.759Z,43.95
2017-06-18T11:56:24.592Z,43.63
2017-06-18T11:57:26.463Z,43.37
2017-06-18T11:58:28.334Z,43.48
2017-06-18T11:59:30.211Z,42.22
2017-06-18T12:00:44.355Z,41.86
2017-06-18T12:01:46.260Z,42.14
2017-06-18T12:02:48.139Z,42.80
2017-06-18T12:03:50.029Z,43.55
2017-06-18T12:04:51.854Z,43.65
2017-06-18T12:05:53.663Z,44.81
2017-06-18T12:06:55.534Z,45.57
2017-06-18T12:07:57.423Z,45.37
2017-06-18T12:08:59.292Z,45.76
2017-06-18T12:10:13.482Z,45.86
2017-06-18T12:11:15.349Z,45.18
2017-06-18T12:12:17.223Z,44.70
2017-06-18T12:13:19.112Z,44.21
2017-06-18T12:14:20.925Z,43.92
2017-06-18T12:15:22.732Z,43.73
2017-06-18T12:16:24.600Z,43.82
2017-06-18T12:17:26.475Z,43.85
2017-06-18T12:18:28.348Z,43.95
2017-06-18T12:19:42.487Z,44.53
2017-06-18T12:20:44.353Z,44.43
2017-06-18T12:21:46.250Z,43.75
2017-06-18T12:22:48.146Z,44.70
2017-06-18T12:23:49.955Z,44.96
2017-06-18T12:24:51.777Z,45.64
2017-06-18T12:25:53.654Z,46.22
2017-06-18T12:26:55.545Z,46.49
2017-06-18T12:27:57.435Z,46.39
2017-06-18T12:29:11.577Z,47.45
2017-06-18T12:30:13.451Z,46.97
2017-06-18T12:31:15.337Z,47.26
2017-06-18T12:32:17.206Z,46.88
2017-06-18T12:33:19.013Z,47.26
2017-06-18T12:34:20.822Z,46.78
2017-06-18T12:35:22.688Z,46.80
2017-06-18T12:36:24.560Z,46.51
2017-06-18T12:37:26.433Z,45.95
2017-06-18T12:38:40.593Z,45.86
2017-06-18T12:39:42.465Z,45.18
2017-06-18T12:40:44.331Z,44.98
2017-06-18T12:41:46.200Z,44.79
2017-06-18T12:42:48.013Z,44.21
2017-06-18T12:43:49.842Z,44.40
2017-06-18T12:44:51.710Z,44.50
2017-06-18T12:45:53.583Z,44.02
2017-06-18T12:46:55.451Z,44.23
2017-06-18T12:48:09.602Z,44.23
2017-06-18T12:49:11.466Z,44.04
2017-06-18T12:50:13.342Z,43.55
2017-06-18T12:51:15.232Z,43.46
2017-06-18T12:52:17.041Z,42.61
2017-06-18T12:53:18.880Z,42.32
2017-06-18T12:54:20.746Z,41.72
2017-06-18T12:55:22.621Z,42.40
2017-06-18T12:56:24.489Z,42.20
2017-06-18T12:57:38.656Z,42.66
2017-06-18T12:58:40.519Z,42.08
2017-06-18T12:59:42.393Z,42.57
2017-06-18T13:00:44.283Z,43.15
2017-06-18T13:01:46.093Z,42.86
2017-06-18T13:02:47.907Z,43.54
2017-06-18T13:03:49.792Z,43.54
2017-06-18T13:04:51.664Z,43.37
2017-06-18T13:05:53.539Z,42.78
2017-06-18T13:07:07.700Z,42.10
2017-06-18T13:08:09.567Z,41.64
2017-06-18T13:09:11.445Z,41.37
2017-06-18T13:10:13.330Z,40.79
2017-06-18T13:11:15.143Z,41.00
2017-06-18T13:12:16.949Z,40.52
2017-06-18T13:13:18.825Z,40.99
2017-06-18T13:14:20.691Z,41.47
2017-06-18T13:15:22.570Z,42.14
2017-06-18T13:16:36.736Z,42.90
2017-06-18T13:17:38.612Z,43.19
2017-06-18T13:18:40.495Z,43.58
2017-06-18T13:19:42.375Z,43.29
2017-06-18T13:20:44.203Z,43.09
2017-06-18T13:21:46.014Z,43.58
2017-06-18T13:22:47.905Z,43.48
2017-06-18T13:23:49.783Z,43.87
2017-06-18T13:24:51.680Z,44.33
2017-06-18T13:26:05.841Z,44.13
2017-06-18T13:27:07.714Z,44.13
2017-06-18T13:28:09.607Z,43.55
2017-06-18T13:29:11.499Z,43.68
2017-06-18T13:30:13.327Z,43.48
2017-06-18T13:31:15.142Z,43.48
2017-06-18T13:32:17.013Z,43.09
2017-06-18T13:33:18.890Z,43.38
2017-06-18T13:34:20.780Z,43.58
2017-06-18T13:35:34.977Z,43.48
2017-06-18T13:36:36.845Z,42.90